createdAt,value
2019-03-31T00:01:53.555Z,40.77
2019-03-31T00:11:59.195Z,38.20
2019-03-31T00:22:05.376Z,37.33
2019-03-31T00:32:10.869Z,36.77
2019-03-31T00:42:16.378Z,34.33
2019-03-31T00:52:21.891Z,33.43
2019-03-31T01:02:32.201Z,32.40
2019-03-31T01:12:38.276Z,31.23
2019-03-31T01:22:43.837Z,31.07
2019-03-31T01:32:49.624Z,33.57
2019-03-31T01:42:55.362Z,34.70
2019-03-31T01:53:01.079Z,33.40
2019-03-31T02:03:06.959Z,37.13
2019-03-31T02:13:12.715Z,34.40
2019-03-31T02:23:18.440Z,37.33
2019-03-31T02:33:24.035Z,36.07
2019-03-31T02:43:29.641Z,37.00
2019-03-31T02:53:35.146Z,29.70
2019-03-31T03:03:41.179Z,32.47
2019-03-31T03:13:49.747Z,33.60
2019-03-31T03:23:55.314Z,33.03
2019-03-31T03:34:01.005Z,35.33
2019-03-31T03:44:06.612Z,35.53
2019-03-31T03:54:12.121Z,37.33
2019-03-31T04:04:17.715Z,35.03
2019-03-31T04:14:23.363Z,32.30
2019-03-31T04:24:28.957Z,30.60
2019-03-31T04:34:34.601Z,31.37
2019-03-31T04:44:40.409Z,29.83
2019-03-31T04:54:45.928Z,27.97
2019-03-31T05:04:51.446Z,31.10
2019-03-31T05:14:58.196Z,29.50
2019-03-31T05:25:04.495Z,30.03
2019-03-31T05:35:10.120Z,30.03
2019-03-31T05:45:15.826Z,31.07
2019-03-31T05:55:21.426Z,31.33
2019-03-31T06:05:26.943Z,29.00
2019-03-31T06:15:32.459Z,28.80
2019-03-31T06:25:38.058Z,27.60
2019-03-31T06:35:43.579Z,27.83
2019-03-31T06:45:49.124Z,28.23
2019-03-31T06:55:55.892Z,31.47
2019-03-31T07:06:01.651Z,28.33
2019-03-31T07:16:10.520Z,26.17
2019-03-31T07:26:16.188Z,25.17
2019-03-31T07:36:25.087Z,25.97
2019-03-31T07:46:30.653Z,23.20
2019-03-31T07:56:37.679Z,26.23
2019-03-31T08:06:43.199Z,25.73
2019-03-31T08:16:48.934Z,23.07
2019-03-31T08:26:54.475Z,21.00
2019-03-31T08:37:00.075Z,20.40
2019-03-31T08:47:06.446Z,16.70
2019-03-31T08:57:12.028Z,17.40
2019-03-31T09:07:17.637Z,16.23
2019-03-31T09:17:23.279Z,18.97
2019-03-31T09:27:28.770Z,17.40
2019-03-31T09:37:34.477Z,17.27
2019-03-31T09:47:40.220Z,15.87
2019-03-31T09:57:45.885Z,14.23
2019-03-31T10:07:51.675Z,12.73
2019-03-31T10:17:57.311Z,15.67
2019-03-31T10:28:04.993Z,15.77
2019-03-31T10:38:10.939Z,16.40
2019-03-31T10:48:20.710Z,15.20
2019-03-31T10:58:25.128Z,14.50
2019-03-31T11:19:20.098Z,11.60
2019-03-31T11:29:25.683Z,11.20
2019-03-31T11:39:31.195Z,10.10
2019-03-31T11:49:38.170Z,8.93
2019-03-31T11:59:43.887Z,8.73
2019-03-31T12:09:49.720Z,8.53
2019-03-31T12:19:55.595Z,9.80
2019-03-31T12:30:01.196Z,9.80
2019-03-31T12:40:08.236Z,9.53
2019-03-31T12:50:14.083Z,10.63
2019-03-31T13:00:20.382Z,12.30
2019-03-31T13:10:26.082Z,11.43
2019-03-31T13:20:33.502Z,12.37
2019-03-31T13:30:40.213Z,14.33
2019-03-31T13:40:46.488Z,11.63
2019-03-31T13:50:52.362Z,12.17
2019-03-31T14:00:58.303Z,13.13
2019-03-31T14:11:04.246Z,14.87
2019-03-31T14:21:10.337Z,13.63
2019-03-31T14:31:16.175Z,12.73
2019-03-31T14:41:21.995Z,13.60
2019-03-31T14:51:29.350Z,12.27
2019-03-31T15:01:35.180Z,15.67
2019-03-31T15:11:41.001Z,15.73
2019-03-31T15:21:46.984Z,14.23
2019-03-31T15:31:53.156Z,15.20
2019-03-31T15:41:59.321Z,18.03
2019-03-31T15:52:08.581Z,23.03
2019-03-31T16:02:12.760Z,21.37
2019-03-31T16:12:18.808Z,18.30
2019-03-31T16:22:24.781Z,20.13
2019-03-31T16:32:30.715Z,22.47
2019-03-31T16:42:36.762Z,22.03
2019-03-31T16:52:42.723Z,32.53
2019-03-31T17:02:48.706Z,28.40
2019-03-31T17:12:54.715Z,22.80
2019-03-31T17:23:00.797Z,38.70
2019-03-31T17:33:06.725Z,30.57
2019-03-31T17:43:12.642Z,27.37
2019-03-31T17:53:18.602Z,31.47
2019-03-31T18:03:24.607Z,31.47
2019-03-31T18:13:30.682Z,29.10
2019-03-31T18:23:38.788Z,30.13
2019-03-31T18:33:44.809Z,28.90
2019-03-31T18:43:51.979Z,29.63
2019-03-31T18:54:04.658Z,30.73
2019-03-31T19:04:28.486Z,36.43
2019-03-31T19:14:39.100Z,33.50
2019-03-31T19:24:46.987Z,34.70
2019-03-31T19:35:12.607Z,36.33
2019-03-31T19:45:36.289Z,24.90
2019-03-31T19:55:50.005Z,28.13
2019-03-31T20:06:15.640Z,30.60
2019-03-31T20:16:23.098Z,24.07
2019-03-31T20:26:42.601Z,23.00
2019-03-31T20:37:05.790Z,24.50
2019-03-31T20:47:11.754Z,18.40
2019-03-31T20:57:17.807Z,17.67
2019-03-31T21:07:23.617Z,18.93
2019-03-31T21:17:29.342Z,19.43
2019-03-31T21:27:35.996Z,16.33
2019-03-31T21:37:41.687Z,15.60
2019-03-31T21:47:47.234Z,14.00
2019-03-31T21:57:52.884Z,14.07
2019-03-31T22:07:58.378Z,13.87
2019-03-31T22:18:03.884Z,16.70
2019-03-31T22:28:09.755Z,16.50
2019-03-31T22:38:15.351Z,15.70
2019-03-31T22:48:20.862Z,16.97
2019-03-31T22:58:26.377Z,18.07
2019-03-31T23:08:31.997Z,17.17
2019-03-31T23:18:37.682Z,17.60
2019-03-31T23:29:01.084Z,18.27
2019-03-31T23:39:08.097Z,15.87
2019-03-31T23:49:13.709Z,15.87
2019-03-31T23:59:19.277Z,18.27
